Terminal Aerodrome Forecast
Issued by NWS Memphis, TN

Home | Current Version | Previous Version | Text Only | Print | Product List | Glossary On
Versions: 1 2 3 4 5 6 7 8 9 10 11 12
248
FTUS44 KMEG 212329
TAFMKL
TAF
KMKL 212329Z 2200/2224 17010KT P6SM SCT080
     FM221100 17014G20KT P6SM VCSH BKN040
     FM221300 17013G20KT 6SM -SHRA BR BKN020
     FM221600 19015G22KT P6SM FEW030 SCT100
     FM222100 23018G25KT P6SM FEW100=

USA.gov is the U.S. government's official web portal to all federal, state and local government web resources and services.